createdAt,value
2019-02-07T00:01:41.673Z,47.77
2019-02-07T00:05:48.912Z,49.73
2019-02-07T00:09:56.602Z,54.13
2019-02-07T00:14:03.903Z,49.67
2019-02-07T00:18:11.346Z,47.70
2019-02-07T00:22:18.788Z,51.00
2019-02-07T00:26:30.351Z,48.00
2019-02-07T00:30:38.425Z,52.93
2019-02-07T00:34:46.042Z,51.30
2019-02-07T00:38:53.504Z,50.53
2019-02-07T00:43:02.132Z,46.90
2019-02-07T00:47:09.827Z,44.73
2019-02-07T00:51:17.460Z,48.13
2019-02-07T00:55:24.566Z,48.17
2019-02-07T00:59:31.440Z,47.43
2019-02-07T01:03:38.418Z,45.80
2019-02-07T01:07:45.972Z,49.23
2019-02-07T01:11:53.858Z,47.90
2019-02-07T01:16:00.694Z,47.67
2019-02-07T01:20:10.910Z,50.57
2019-02-07T01:24:17.798Z,47.07
2019-02-07T01:28:24.733Z,48.13
2019-02-07T01:32:31.582Z,50.07
2019-02-07T01:36:38.399Z,48.40
2019-02-07T01:40:45.479Z,49.67
2019-02-07T01:44:52.388Z,49.67
2019-02-07T01:48:59.275Z,49.87
2019-02-07T01:53:06.546Z,47.83
2019-02-07T01:57:13.903Z,50.27
2019-02-07T02:01:21.280Z,47.13
2019-02-07T02:05:35.973Z,48.97
2019-02-07T02:09:42.879Z,48.77
2019-02-07T02:13:49.705Z,45.70
2019-02-07T02:17:56.644Z,47.60
2019-02-07T02:22:03.940Z,46.40
2019-02-07T02:26:10.795Z,47.17
2019-02-07T02:30:25.703Z,44.10
2019-02-07T02:34:32.561Z,50.80
2019-02-07T02:38:39.561Z,50.17
2019-02-07T02:42:46.898Z,44.50
2019-02-07T02:46:53.778Z,47.07
2019-02-07T02:51:00.869Z,48.03
2019-02-07T02:55:09.056Z,47.23
2019-02-07T02:59:15.938Z,43.80
2019-02-07T03:03:48.439Z,46.70
2019-02-07T03:08:16.966Z,46.70
2019-02-07T03:12:43.915Z,46.20
2019-02-07T03:17:12.715Z,48.97
2019-02-07T03:21:32.946Z,46.57
2019-02-07T03:26:03.689Z,42.13
2019-02-07T03:30:33.381Z,46.60
2019-02-07T03:35:01.996Z,48.37
2019-02-07T03:39:28.463Z,45.43
2019-02-07T03:43:51.917Z,46.00
2019-02-07T03:48:20.694Z,41.70
2019-02-07T03:52:55.412Z,38.90
2019-02-07T03:57:16.133Z,42.10
2019-02-07T04:01:42.228Z,41.70
2019-02-07T04:06:07.049Z,43.33
2019-02-07T04:10:24.150Z,42.77
2019-02-07T04:14:59.381Z,40.30
2019-02-07T04:19:31.585Z,41.17
2019-02-07T04:24:06.766Z,41.23
2019-02-07T04:28:32.432Z,45.17
2019-02-07T04:32:57.535Z,44.73
2019-02-07T04:37:26.173Z,41.37
2019-02-07T04:41:45.642Z,40.67
2019-02-07T04:46:26.409Z,39.43
2019-02-07T04:50:44.322Z,36.00
2019-02-07T04:54:59.905Z,42.40
2019-02-07T04:59:27.315Z,42.03
2019-02-07T05:04:05.460Z,39.37
2019-02-07T05:08:33.385Z,45.40
2019-02-07T05:13:12.119Z,39.63
2019-02-07T05:17:29.335Z,39.57
2019-02-07T05:21:54.093Z,39.20
2019-02-07T05:26:12.784Z,40.23
2019-02-07T05:30:29.824Z,38.40
2019-02-07T05:35:07.651Z,40.67
2019-02-07T05:39:33.476Z,38.13
2019-02-07T05:43:57.845Z,42.50
2019-02-07T05:48:21.834Z,41.83
2019-02-07T05:53:02.643Z,39.00
2019-02-07T05:57:27.392Z,41.33
2019-02-07T06:01:51.829Z,39.33
2019-02-07T06:06:16.577Z,44.03
2019-02-07T06:11:08.916Z,40.90
2019-02-07T06:15:37.752Z,37.77
2019-02-07T06:20:13.297Z,38.90
2019-02-07T06:24:54.839Z,40.90
2019-02-07T06:29:20.010Z,40.70
2019-02-07T06:33:44.487Z,42.27
2019-02-07T06:37:59.492Z,37.40
2019-02-07T06:42:23.553Z,40.23
2019-02-07T06:46:58.762Z,40.57
2019-02-07T06:51:27.857Z,39.97
2019-02-07T06:55:54.565Z,39.60
2019-02-07T07:00:34.155Z,40.83
2019-02-07T07:05:00.136Z,39.20
2019-02-07T07:09:36.790Z,38.13
2019-02-07T07:14:11.801Z,42.60
2019-02-07T07:18:46.824Z,42.20
2019-02-07T07:23:21.882Z,42.37
2019-02-07T07:27:56.543Z,37.10
2019-02-07T07:32:21.479Z,41.10
2019-02-07T07:36:50.080Z,41.03
2019-02-07T07:41:34.083Z,44.03
2019-02-07T07:45:58.749Z,46.47
2019-02-07T07:50:26.224Z,41.87
2019-02-07T07:54:42.845Z,42.20
2019-02-07T07:59:07.145Z,45.00
2019-02-07T08:03:41.977Z,44.73
2019-02-07T08:08:07.113Z,45.67
2019-02-07T08:12:44.927Z,45.43
2019-02-07T08:17:15.228Z,42.73
2019-02-07T08:21:49.424Z,43.10
2019-02-07T08:26:13.475Z,57.27
2019-02-07T08:30:54.566Z,45.40
2019-02-07T08:35:11.532Z,46.80
2019-02-07T08:39:38.336Z,45.67
2019-02-07T08:44:07.148Z,46.83
2019-02-07T08:48:38.836Z,45.67
2019-02-07T08:53:10.745Z,51.03
2019-02-07T08:57:40.257Z,49.83
2019-02-07T09:02:06.039Z,48.40
2019-02-07T09:06:31.793Z,43.77
2019-02-07T09:11:03.834Z,50.00
2019-02-07T09:15:27.330Z,52.30
2019-02-07T09:19:55.858Z,44.50
2019-02-07T09:24:20.593Z,48.23
2019-02-07T09:28:45.096Z,49.03
2019-02-07T09:33:23.406Z,51.30
2019-02-07T09:37:48.930Z,51.43
2019-02-07T09:42:13.256Z,54.67
2019-02-07T09:46:38.129Z,54.47
2019-02-07T09:50:58.261Z,57.13
2019-02-07T09:55:19.716Z,54.27
2019-02-07T09:59:57.834Z,51.03
2019-02-07T10:04:11.202Z,53.83
2019-02-07T10:08:35.817Z,49.93
2019-02-07T10:13:07.049Z,52.63
2019-02-07T10:17:27.955Z,47.73
2019-02-07T10:22:06.480Z,48.63
2019-02-07T10:26:31.167Z,53.00
2019-02-07T10:31:02.880Z,46.97
2019-02-07T10:35:27.765Z,52.83
2019-02-07T10:39:59.147Z,48.63
2019-02-07T10:44:23.738Z,49.33
2019-02-07T10:48:44.756Z,51.23
2019-02-07T10:53:13.642Z,59.50
2019-02-07T10:57:34.396Z,50.57
2019-02-07T11:02:09.535Z,56.47
2019-02-07T11:06:44.061Z,52.93
2019-02-07T11:11:21.856Z,54.57
2019-02-07T11:16:05.956Z,55.63
2019-02-07T11:20:30.977Z,50.50
2019-02-07T11:24:54.762Z,49.77
2019-02-07T11:29:19.333Z,48.37
2019-02-07T11:33:44.124Z,50.37
2019-02-07T11:38:22.249Z,48.63
2019-02-07T11:42:47.983Z,47.30
2019-02-07T11:47:22.797Z,48.80
2019-02-07T11:51:48.383Z,51.40
2019-02-07T11:56:12.623Z,49.97
2019-02-07T12:00:36.148Z,47.87
2019-02-07T12:05:02.087Z,53.80
2019-02-07T12:09:28.811Z,44.20
2019-02-07T12:13:58.052Z,57.93
2019-02-07T12:18:36.195Z,52.70
2019-02-07T12:23:15.186Z,47.27
2019-02-07T12:27:31.780Z,49.57
2019-02-07T12:32:00.660Z,52.90
2019-02-07T12:36:29.426Z,49.93
2019-02-07T12:40:55.702Z,50.47
2019-02-07T12:45:32.658Z,57.07
2019-02-07T12:50:03.067Z,50.47
2019-02-07T12:54:35.206Z,52.50
2019-02-07T12:59:19.510Z,48.53
2019-02-07T13:04:03.896Z,52.37
2019-02-07T13:08:38.916Z,52.20
2019-02-07T13:13:04.646Z,50.33
2019-02-07T13:17:45.943Z,53.93
2019-02-07T13:22:14.807Z,52.07
2019-02-07T13:26:33.004Z,52.60
2019-02-07T13:31:02.009Z,50.00
2019-02-07T13:35:27.374Z,51.27
2019-02-07T13:39:46.443Z,54.10
2019-02-07T13:44:18.379Z,50.10
2019-02-07T13:48:50.189Z,51.20
2019-02-07T13:53:09.098Z,51.03
2019-02-07T13:57:47.103Z,57.53
2019-02-07T14:02:12.218Z,54.83
2019-02-07T14:06:47.859Z,57.47
2019-02-07T14:11:16.505Z,55.07
2019-02-07T14:15:45.225Z,61.43
2019-02-07T14:20:14.366Z,61.30
2019-02-07T14:24:40.280Z,67.83
2019-02-07T14:29:09.430Z,62.10
2019-02-07T14:33:47.420Z,62.00
2019-02-07T14:38:28.403Z,58.87
2019-02-07T14:43:00.101Z,62.30
2019-02-07T14:47:07.064Z,64.63
2019-02-07T14:51:14.755Z,58.57
2019-02-07T14:55:21.909Z,58.53
2019-02-07T14:59:28.959Z,67.70
2019-02-07T15:03:37.516Z,57.53
2019-02-07T15:07:44.531Z,55.63
2019-02-07T15:11:51.643Z,55.90
2019-02-07T15:15:58.750Z,50.67
2019-02-07T15:20:07.034Z,54.20
2019-02-07T15:24:14.546Z,48.40
2019-02-07T15:28:21.891Z,49.13
2019-02-07T15:32:29.457Z,49.73
2019-02-07T15:36:37.191Z,48.83
2019-02-07T15:40:45.045Z,48.07
2019-02-07T15:44:53.700Z,49.13
2019-02-07T15:49:02.840Z,43.37
2019-02-07T15:53:11.299Z,46.10
2019-02-07T15:57:18.814Z,41.63
2019-02-07T16:01:43.286Z,43.80
2019-02-07T16:05:50.876Z,42.70
2019-02-07T16:09:58.010Z,44.73
2019-02-07T16:14:06.571Z,42.90
2019-02-07T16:18:13.828Z,44.80
2019-02-07T16:22:22.094Z,39.50
2019-02-07T16:26:32.744Z,39.90
2019-02-07T16:30:40.297Z,41.63
2019-02-07T16:34:47.301Z,49.13
2019-02-07T16:38:55.841Z,46.90
2019-02-07T16:43:04.119Z,45.50
2019-02-07T16:47:12.070Z,55.17
2019-02-07T16:51:19.618Z,52.17
2019-02-07T16:55:27.457Z,53.80
2019-02-07T16:59:35.530Z,58.60
2019-02-07T17:03:43.514Z,50.60
2019-02-07T17:07:55.877Z,56.90
2019-02-07T17:12:04.865Z,50.80
2019-02-07T17:16:12.483Z,46.00
2019-02-07T17:20:27.546Z,42.77
2019-02-07T17:24:34.616Z,47.43
2019-02-07T17:28:43.364Z,45.13
2019-02-07T17:32:51.075Z,48.93
2019-02-07T17:36:58.807Z,62.03
2019-02-07T17:41:06.365Z,54.87
2019-02-07T17:45:23.544Z,52.40
2019-02-07T17:49:39.114Z,48.63
2019-02-07T17:53:48.120Z,48.23
2019-02-07T17:57:56.478Z,45.30
2019-02-07T18:02:07.120Z,49.70
2019-02-07T18:06:14.467Z,43.70
2019-02-07T18:10:22.027Z,42.23
2019-02-07T18:14:41.781Z,66.03
2019-02-07T18:19:19.915Z,34.07
2019-02-07T18:23:30.851Z,36.57
2019-02-07T18:27:37.846Z,32.70
2019-02-07T18:31:45.056Z,34.27
2019-02-07T18:35:52.350Z,34.73
2019-02-07T18:39:59.505Z,29.47
2019-02-07T18:44:07.105Z,33.00
2019-02-07T18:48:14.428Z,32.03
2019-02-07T18:52:22.264Z,29.03
2019-02-07T18:56:30.876Z,31.60
2019-02-07T19:00:39.302Z,33.33
2019-02-07T19:04:46.503Z,31.13
2019-02-07T19:08:53.919Z,31.17
2019-02-07T19:13:03.848Z,31.23
2019-02-07T19:17:10.939Z,34.17
2019-02-07T19:21:18.139Z,26.50
2019-02-07T19:25:25.604Z,27.63
2019-02-07T19:29:34.313Z,29.50
2019-02-07T19:33:44.008Z,31.80
2019-02-07T19:37:51.386Z,27.10
2019-02-07T19:41:58.558Z,33.57
2019-02-07T19:46:05.913Z,29.67
2019-02-07T19:50:18.736Z,31.57
2019-02-07T19:54:25.957Z,32.70
2019-02-07T19:58:33.580Z,29.47
2019-02-07T20:02:41.116Z,32.67
2019-02-07T20:06:50.474Z,33.87
2019-02-07T20:10:57.441Z,29.17
2019-02-07T20:15:19.810Z,36.43
2019-02-07T20:19:27.044Z,30.73
2019-02-07T20:23:34.477Z,33.90
2019-02-07T20:27:41.508Z,36.97
2019-02-07T20:31:48.555Z,30.03
2019-02-07T20:35:56.660Z,30.67
2019-02-07T20:40:05.195Z,29.47
2019-02-07T20:44:14.018Z,29.17
2019-02-07T20:48:21.376Z,31.33
2019-02-07T20:52:28.407Z,33.23
2019-02-07T20:56:37.402Z,27.90
2019-02-07T21:00:47.559Z,31.37
2019-02-07T21:04:54.551Z,24.17
2019-02-07T21:09:07.913Z,27.97
2019-02-07T21:13:20.619Z,31.00
2019-02-07T21:17:27.539Z,26.93
2019-02-07T21:21:36.347Z,25.70
2019-02-07T21:25:51.286Z,27.27
2019-02-07T21:29:58.196Z,22.17
2019-02-07T21:34:06.960Z,25.33
2019-02-07T21:38:17.106Z,29.10
2019-02-07T21:42:23.988Z,19.43
2019-02-07T21:46:35.975Z,32.70
2019-02-07T21:50:43.874Z,22.93
2019-02-07T21:54:50.951Z,25.40
2019-02-07T21:58:58.146Z,23.30
2019-02-07T22:03:08.808Z,22.33
2019-02-07T22:07:15.820Z,23.27
2019-02-07T22:11:25.968Z,25.37
2019-02-07T22:15:35.225Z,22.67
2019-02-07T22:19:42.168Z,23.87
2019-02-07T22:23:49.275Z,24.90
2019-02-07T22:27:56.474Z,19.90
2019-02-07T22:32:03.739Z,20.10
2019-02-07T22:36:11.471Z,22.07
2019-02-07T22:40:21.531Z,21.97
2019-02-07T22:44:28.414Z,21.37
2019-02-07T22:48:36.419Z,22.93
2019-02-07T22:52:43.231Z,22.67
2019-02-07T22:56:51.146Z,19.80
2019-02-07T23:01:59.676Z,19.43
2019-02-07T23:06:07.073Z,18.50
2019-02-07T23:10:13.961Z,18.03
2019-02-07T23:14:21.049Z,18.13
2019-02-07T23:18:27.911Z,16.07
2019-02-07T23:22:34.716Z,35.83
2019-02-07T23:26:41.555Z,20.90
2019-02-07T23:30:48.545Z,17.70
2019-02-07T23:34:56.454Z,18.27
2019-02-07T23:39:06.848Z,15.07
2019-02-07T23:43:15.833Z,15.00
2019-02-07T23:47:22.719Z,13.73
2019-02-07T23:51:30.389Z,16.27
2019-02-07T23:55:37.513Z,14.13
2019-02-07T23:59:45.944Z,12.83
